Time;durP1;ratioP1;P1;durP2;ratioP2;P2;SDS_P1;SDS_P2;PMS_P1;PMS_P2;Temp;Humidity;BMP_temperature;BMP_pressure;BME280_temperature;BME280_humidity;BME280_pressure;Samples;Min_cycle;Max_cycle;Signal;HPM_P1;HPM_P2
2022/10/03 00:02:25;;;;;;;0.30;0.30;;;11.80;99.90;;;;;;5015837;28;20449;-70
2022/10/03 00:05:00;;;;;;;0.30;0.30;;;11.90;99.90;;;;;;5015635;28;20516;-68
2022/10/03 00:07:28;;;;;;;0.30;0.30;;;11.90;99.90;;;;;;5015710;28;20472;-68
2022/10/03 00:10:09;;;;;;;0.30;0.30;;;11.90;99.90;;;;;;5015562;28;20429;-68
2022/10/03 00:12:39;;;;;;;0.40;0.40;;;11.80;99.90;;;;;;5015698;28;20406;-67
2022/10/03 00:15:24;;;;;;;0.37;0.37;;;11.80;99.90;;;;;;5015554;28;20430;-68
2022/10/03 00:18:20;;;;;;;0.30;0.30;;;11.60;99.90;;;;;;5015630;28;20394;-67
2022/10/03 00:21:06;;;;;;;0.30;0.30;;;11.60;99.90;;;;;;5015301;28;20410;-69
2022/10/03 00:23:53;;;;;;;0.40;0.40;;;11.60;99.90;;;;;;5015425;28;20768;-68
2022/10/03 00:26:44;;;;;;;0.30;0.30;;;11.60;99.90;;;;;;5015227;28;20492;-70
2022/10/03 00:29:25;;;;;;;0.30;0.30;;;11.60;99.90;;;;;;5015308;28;20406;-68
2022/10/03 00:32:00;;;;;;;0.30;0.30;;;11.60;99.90;;;;;;5015285;28;20429;-69
2022/10/03 00:34:37;;;;;;;0.30;0.30;;;11.80;99.90;;;;;;5015236;28;20433;-68
2022/10/03 00:37:21;;;;;;;0.30;0.30;;;11.60;99.90;;;;;;5015196;28;20401;-70
2022/10/03 00:40:05;;;;;;;0.33;0.33;;;11.80;99.90;;;;;;5014246;28;20437;-67
2022/10/03 00:42:53;;;;;;;0.30;0.30;;;12.00;99.90;;;;;;5015158;28;20406;-68
2022/10/03 00:45:37;;;;;;;0.30;0.30;;;12.10;99.90;;;;;;5015119;28;20462;-70
2022/10/03 00:48:15;;;;;;;0.30;0.30;;;12.10;99.90;;;;;;5014885;28;20757;-69
2022/10/03 00:50:46;;;;;;;0.30;0.30;;;12.10;99.90;;;;;;5014745;28;20408;-67
2022/10/03 00:53:32;;;;;;;0.30;0.30;;;12.10;99.90;;;;;;5014951;28;20460;-69
2022/10/03 00:56:09;;;;;;;0.30;0.30;;;12.10;99.90;;;;;;5014793;28;20518;-69
2022/10/03 00:59:01;;;;;;;0.30;0.30;;;12.00;99.90;;;;;;5014814;28;20411;-69
2022/10/03 01:01:26;;;;;;;0.60;0.60;;;12.10;99.90;;;;;;5014992;28;20414;-69
2022/10/03 01:03:55;;;;;;;0.40;0.40;;;12.00;99.90;;;;;;5014758;28;20461;-69
2022/10/03 01:06:48;;;;;;;0.40;0.40;;;12.10;99.90;;;;;;5014422;28;20210;-68
2022/10/03 01:09:37;;;;;;;0.30;0.30;;;12.20;99.90;;;;;;5014622;28;20414;-69
2022/10/03 01:12:34;;;;;;;0.30;0.30;;;12.20;99.90;;;;;;5014681;28;20632;-69
2022/10/03 01:15:26;;;;;;;0.30;0.30;;;12.20;99.90;;;;;;5014644;28;20430;-69
2022/10/03 01:17:55;;;;;;;0.30;0.30;;;12.20;99.90;;;;;;5014690;28;20452;-68
2022/10/03 01:20:47;;;;;;;0.30;0.30;;;12.40;99.90;;;;;;5014080;28;20930;-69
2022/10/03 01:23:43;;;;;;;0.30;0.30;;;12.30;99.90;;;;;;5014470;28;20407;-68
2022/10/03 01:26:31;;;;;;;0.30;0.30;;;12.30;99.90;;;;;;5014462;28;20461;-69
2022/10/03 01:32:11;;;;;;;0.40;0.40;;;12.30;99.90;;;;;;5014735;28;20496;-70
2022/10/03 01:35:11;;;;;;;1.07;1.07;;;12.60;99.90;;;;;;5014194;28;20414;-68
2022/10/03 01:37:57;;;;;;;0.30;0.30;;;12.40;99.90;;;;;;5014041;28;20476;-69
2022/10/03 01:40:22;;;;;;;0.50;0.50;;;12.40;99.90;;;;;;5014003;28;20405;-70
2022/10/03 01:43:01;;;;;;;0.30;0.30;;;12.40;99.90;;;;;;5014128;28;20401;-68
2022/10/03 01:45:48;;;;;;;0.30;0.30;;;12.40;99.90;;;;;;5013907;28;20206;-67
2022/10/03 01:48:30;;;;;;;0.30;0.30;;;12.40;99.90;;;;;;5014191;28;20430;-68
2022/10/03 01:51:18;;;;;;;0.30;0.30;;;12.40;99.90;;;;;;5013932;28;20387;-68
2022/10/03 01:54:16;;;;;;;0.40;0.40;;;12.40;99.90;;;;;;5014057;28;20387;-69
2022/10/03 01:57:11;;;;;;;0.40;0.40;;;12.50;99.90;;;;;;5014073;28;20417;-69
2022/10/03 01:59:46;;;;;;;0.50;0.50;;;12.50;99.90;;;;;;5013773;28;20397;-69
2022/10/03 02:02:34;;;;;;;0.30;0.30;;;12.60;99.90;;;;;;5013971;28;20443;-69
2022/10/03 02:05:14;;;;;;;0.30;0.30;;;12.60;99.90;;;;;;5013632;28;20834;-67
2022/10/03 02:07:51;;;;;;;0.30;0.30;;;12.60;99.90;;;;;;5013899;28;20408;-70
2022/10/03 02:10:26;;;;;;;0.77;0.60;;;12.60;99.90;;;;;;5013857;28;20417;-69
2022/10/03 02:13:16;;;;;;;0.30;0.30;;;12.60;99.90;;;;;;5013919;28;20488;-70
2022/10/03 02:15:47;;;;;;;0.30;0.30;;;12.60;99.90;;;;;;5014032;28;20773;-68
2022/10/03 02:18:22;;;;;;;0.40;0.40;;;12.60;99.90;;;;;;5013870;28;20400;-68
2022/10/03 02:20:52;;;;;;;0.30;0.30;;;12.60;99.90;;;;;;5013502;28;20404;-69
2022/10/03 02:23:45;;;;;;;0.30;0.30;;;12.50;99.90;;;;;;5013834;28;20399;-68
2022/10/03 02:26:28;;;;;;;0.30;0.30;;;12.60;99.90;;;;;;5011546;28;20902;-71
2022/10/03 02:29:03;;;;;;;0.30;0.30;;;12.50;99.90;;;;;;5012267;28;20909;-69
2022/10/03 02:31:40;;;;;;;0.30;0.30;;;12.50;99.90;;;;;;5012372;28;20425;-67
2022/10/03 02:34:24;;;;;;;0.30;0.30;;;12.40;99.90;;;;;;5013478;28;20389;-68
2022/10/03 02:37:13;;;;;;;0.30;0.30;;;12.40;99.90;;;;;;5013578;28;20402;-69
2022/10/03 02:39:45;;;;;;;0.40;0.40;;;12.40;99.90;;;;;;5013549;28;20399;-70
2022/10/03 02:42:25;;;;;;;0.30;0.30;;;12.50;99.90;;;;;;5013403;28;20405;-70
2022/10/03 02:45:03;;;;;;;0.30;0.30;;;12.50;99.90;;;;;;5013300;28;20456;-69
2022/10/03 02:47:47;;;;;;;0.30;0.30;;;12.50;99.90;;;;;;5012040;28;20461;-70
2022/10/03 02:50:27;;;;;;;0.30;0.30;;;12.60;99.90;;;;;;5013278;28;20460;-70
2022/10/03 02:53:25;;;;;;;0.30;0.30;;;12.70;99.90;;;;;;5013308;28;20410;-70
2022/10/03 02:56:27;;;;;;;0.33;0.33;;;12.70;99.90;;;;;;5013404;28;20768;-70
2022/10/03 02:59:21;;;;;;;0.30;0.30;;;12.70;99.90;;;;;;5013220;28;20737;-70
2022/10/03 03:01:53;;;;;;;0.30;0.30;;;12.70;99.90;;;;;;5013395;28;20406;-70
2022/10/03 03:04:47;;;;;;;0.30;0.30;;;12.80;99.90;;;;;;5017035;28;20417;-68
2022/10/03 03:07:41;;;;;;;0.40;0.40;;;12.90;99.90;;;;;;5016869;28;20467;-70
2022/10/03 03:10:44;;;;;;;1.73;0.40;;;12.90;99.90;;;;;;5016799;28;20752;-69
2022/10/03 03:13:36;;;;;;;0.30;0.30;;;12.80;99.90;;;;;;5017027;28;20410;-68
2022/10/03 03:16:23;;;;;;;0.30;0.30;;;12.90;99.90;;;;;;5016585;28;20425;-69
2022/10/03 03:19:10;;;;;;;0.30;0.30;;;12.80;99.90;;;;;;5016600;28;20402;-69
2022/10/03 03:21:48;;;;;;;0.30;0.30;;;12.90;99.90;;;;;;5016827;28;20803;-69
2022/10/03 03:24:23;;;;;;;0.47;0.47;;;12.90;99.90;;;;;;5016656;28;20448;-69
2022/10/03 03:27:13;;;;;;;0.40;0.40;;;12.80;99.90;;;;;;5016734;28;20386;-69
2022/10/03 03:30:02;;;;;;;0.30;0.30;;;12.80;99.90;;;;;;5016280;28;20497;-71
2022/10/03 03:32:46;;;;;;;0.30;0.30;;;12.90;99.90;;;;;;5016653;28;20504;-68
2022/10/03 03:35:27;;;;;;;0.30;0.30;;;12.90;99.90;;;;;;5016544;28;20433;-70
2022/10/03 03:38:10;;;;;;;0.30;0.30;;;12.90;99.90;;;;;;5016417;28;20387;-70
2022/10/03 03:41:12;;;;;;;0.30;0.30;;;12.80;99.90;;;;;;5016100;28;20462;-70
2022/10/03 03:43:46;;;;;;;0.50;0.50;;;12.90;99.90;;;;;;5008981;28;20951;-70
2022/10/03 03:46:32;;;;;;;0.40;0.40;;;12.90;99.90;;;;;;5015956;28;20522;-68
2022/10/03 03:49:16;;;;;;;0.40;0.40;;;12.90;99.90;;;;;;5016117;28;20409;-69
2022/10/03 03:52:04;;;;;;;0.40;0.40;;;12.90;99.90;;;;;;5016130;28;20751;-70
2022/10/03 03:54:33;;;;;;;0.30;0.30;;;12.80;99.90;;;;;;5009133;28;20429;-69
2022/10/03 03:57:14;;;;;;;2.30;1.43;;;12.80;99.90;;;;;;5015955;28;20416;-70
2022/10/03 03:59:49;;;;;;;0.30;0.30;;;12.80;99.90;;;;;;5015996;28;20398;-68
2022/10/03 04:02:31;;;;;;;0.30;0.30;;;12.90;99.90;;;;;;5016115;28;20402;-69
2022/10/03 04:05:11;;;;;;;0.30;0.30;;;12.90;99.90;;;;;;5015964;28;20500;-69
2022/10/03 04:07:49;;;;;;;0.30;0.30;;;12.90;99.90;;;;;;5015658;28;20411;-68
2022/10/03 04:10:41;;;;;;;0.40;0.40;;;12.90;99.90;;;;;;5015690;28;20494;-67
2022/10/03 04:13:18;;;;;;;0.30;0.30;;;12.90;99.90;;;;;;5015775;28;20394;-70
2022/10/03 04:16:08;;;;;;;0.50;0.40;;;12.90;99.90;;;;;;5015056;28;20564;-69
2022/10/03 04:18:58;;;;;;;0.67;0.67;;;12.90;99.90;;;;;;5015582;28;20793;-70
2022/10/03 04:21:30;;;;;;;0.63;0.60;;;12.90;99.90;;;;;;5015582;28;20398;-70
2022/10/03 04:24:18;;;;;;;0.40;0.40;;;12.90;99.90;;;;;;5015410;28;20437;-69
2022/10/03 04:27:15;;;;;;;0.40;0.40;;;12.90;99.90;;;;;;5015813;28;20434;-70
2022/10/03 04:30:22;;;;;;;0.40;0.40;;;12.90;99.90;;;;;;4998526;28;20473;-68
2022/10/03 04:33:03;;;;;;;0.30;0.30;;;13.00;99.90;;;;;;4974107;28;20471;-68
2022/10/03 04:35:50;;;;;;;0.40;0.40;;;12.90;99.90;;;;;;4974174;28;20992;-70
2022/10/03 04:38:45;;;;;;;0.30;0.30;;;12.90;99.90;;;;;;5003632;28;20422;-68
2022/10/03 04:41:39;;;;;;;0.47;0.47;;;12.90;99.90;;;;;;5013920;28;20520;-67
2022/10/03 04:44:36;;;;;;;0.47;0.47;;;13.00;99.90;;;;;;5015361;28;20799;-68
2022/10/03 04:47:28;;;;;;;0.40;0.40;;;13.00;99.90;;;;;;5014864;28;20493;-71
2022/10/03 04:50:11;;;;;;;0.30;0.30;;;13.00;99.90;;;;;;5012761;28;20419;-70
2022/10/03 04:52:57;;;;;;;0.40;0.40;;;13.00;99.90;;;;;;5015057;28;20410;-69
2022/10/03 04:55:41;;;;;;;0.50;0.50;;;13.00;99.90;;;;;;4994031;28;20438;-69
2022/10/03 04:58:22;;;;;;;0.40;0.40;;;13.00;99.90;;;;;;5015044;28;20417;-69
2022/10/03 05:01:21;;;;;;;0.40;0.40;;;13.00;99.90;;;;;;5014807;28;20405;-69
2022/10/03 05:03:50;;;;;;;0.30;0.30;;;13.00;99.90;;;;;;5014779;28;20437;-69
2022/10/03 05:07:07;;;;;;;0.40;0.40;;;13.00;99.90;;;;;;5014533;28;20957;-70
2022/10/03 05:09:48;;;;;;;0.40;0.40;;;13.00;99.90;;;;;;4973527;28;20451;-69
2022/10/03 05:12:34;;;;;;;0.30;0.30;;;13.00;99.90;;;;;;5011035;28;20896;-70
2022/10/03 05:15:26;;;;;;;0.30;0.30;;;13.00;99.90;;;;;;5014824;28;20430;-67
2022/10/03 05:18:05;;;;;;;0.40;0.40;;;12.90;99.90;;;;;;5014725;28;20406;-70
2022/10/03 05:20:54;;;;;;;0.30;0.30;;;13.00;99.90;;;;;;5014272;28;20447;-71
2022/10/03 05:23:46;;;;;;;0.37;0.37;;;13.00;99.90;;;;;;5014630;28;20895;-68
2022/10/03 05:26:42;;;;;;;0.80;0.80;;;13.00;99.90;;;;;;5011697;28;20481;-68
2022/10/03 05:29:33;;;;;;;0.30;0.30;;;12.90;99.90;;;;;;5014111;28;20393;-68
2022/10/03 05:32:53;;;;;;;0.30;0.30;;;12.90;99.90;;;;;;5014517;28;21014;-68
2022/10/03 05:35:46;;;;;;;0.30;0.30;;;12.90;99.90;;;;;;4973064;28;20452;-70
2022/10/03 05:38:14;;;;;;;0.30;0.30;;;12.90;99.90;;;;;;5013326;28;20845;-69
2022/10/03 05:41:01;;;;;;;0.50;0.50;;;13.00;99.90;;;;;;5014095;28;20473;-68
2022/10/03 05:43:57;;;;;;;0.37;0.37;;;13.00;99.90;;;;;;5014291;28;20410;-70
2022/10/03 05:46:53;;;;;;;0.30;0.30;;;13.00;99.90;;;;;;5013815;28;20473;-69
2022/10/03 05:49:24;;;;;;;0.53;0.53;;;13.00;99.90;;;;;;5013973;28;20922;-70
2022/10/03 05:51:52;;;;;;;0.50;0.50;;;13.10;99.90;;;;;;5013800;28;20409;-69
2022/10/03 05:54:39;;;;;;;0.40;0.40;;;13.10;99.90;;;;;;5013934;28;20763;-68
2022/10/03 05:57:49;;;;;;;0.30;0.30;;;13.10;99.90;;;;;;5013971;28;20933;-69
2022/10/03 06:00:37;;;;;;;0.30;0.30;;;13.10;99.90;;;;;;4972572;28;20787;-70
2022/10/03 06:03:21;;;;;;;0.50;0.50;;;13.10;99.90;;;;;;4972833;28;20419;-70
2022/10/03 06:06:11;;;;;;;0.40;0.40;;;13.20;99.90;;;;;;5003132;28;20480;-68
2022/10/03 06:08:49;;;;;;;0.33;0.33;;;13.20;99.90;;;;;;5013779;28;20386;-70
2022/10/03 06:11:26;;;;;;;0.60;0.60;;;13.30;99.90;;;;;;5014122;28;20391;-70
2022/10/03 06:14:10;;;;;;;0.70;0.63;;;13.30;99.90;;;;;;5013738;28;20413;-70
2022/10/03 06:17:16;;;;;;;0.40;0.40;;;13.30;99.90;;;;;;5013604;28;20840;-67
2022/10/03 06:19:51;;;;;;;0.30;0.30;;;13.40;99.90;;;;;;5013863;28;20425;-70
2022/10/03 06:22:48;;;;;;;0.50;0.50;;;13.40;99.90;;;;;;5013757;28;20410;-69
2022/10/03 06:25:42;;;;;;;0.40;0.40;;;13.50;99.90;;;;;;5013418;28;20473;-68
2022/10/03 06:28:26;;;;;;;0.63;0.63;;;13.60;99.90;;;;;;5013836;28;20402;-69
2022/10/03 06:31:41;;;;;;;0.40;0.40;;;13.70;99.90;;;;;;5013476;28;20403;-69
2022/10/03 06:34:25;;;;;;;0.50;0.50;;;13.80;99.90;;;;;;5005052;28;20489;-70
2022/10/03 06:37:32;;;;;;;2.30;1.03;;;14.00;99.90;;;;;;5013820;28;20783;-68
2022/10/03 06:40:50;;;;;;;0.73;0.73;;;14.10;99.90;;;;;;4980924;28;20421;-68
2022/10/03 06:43:48;;;;;;;0.60;0.60;;;14.30;99.90;;;;;;5000902;28;20946;-68
2022/10/03 06:46:44;;;;;;;0.50;0.50;;;14.50;99.90;;;;;;4999808;28;20477;-70
2022/10/03 06:49:37;;;;;;;0.40;0.40;;;14.50;99.90;;;;;;5017150;28;20439;-70
2022/10/03 06:52:15;;;;;;;0.53;0.53;;;14.40;99.90;;;;;;5017411;28;20496;-68
2022/10/03 06:54:46;;;;;;;0.30;0.30;;;14.40;99.90;;;;;;5017112;28;20426;-70
2022/10/03 06:57:23;;;;;;;0.40;0.40;;;14.30;99.90;;;;;;5017114;28;20497;-69
2022/10/03 07:00:16;;;;;;;0.50;0.50;;;14.20;99.90;;;;;;5016869;28;20425;-68
2022/10/03 07:03:00;;;;;;;0.40;0.40;;;14.20;99.90;;;;;;5017148;28;20456;-70
2022/10/03 07:05:38;;;;;;;0.30;0.30;;;14.00;99.90;;;;;;5016752;28;20457;-68
2022/10/03 07:08:31;;;;;;;0.30;0.30;;;14.00;99.90;;;;;;5016382;28;20424;-70
2022/10/03 07:11:09;;;;;;;0.30;0.30;;;14.00;99.90;;;;;;5016959;28;20403;-69
2022/10/03 07:14:15;;;;;;;0.30;0.30;;;14.00;99.90;;;;;;5016752;28;20453;-70
2022/10/03 07:16:57;;;;;;;0.40;0.40;;;14.10;99.90;;;;;;5016003;28;20954;-70
2022/10/03 07:19:36;;;;;;;2.57;1.17;;;14.20;99.90;;;;;;5016677;28;20441;-70
2022/10/03 07:22:37;;;;;;;0.30;0.30;;;14.20;99.90;;;;;;5017148;28;20761;-71
2022/10/03 07:25:21;;;;;;;0.60;0.60;;;14.30;99.90;;;;;;5015965;28;20553;-70
2022/10/03 07:28:05;;;;;;;0.30;0.30;;;14.70;99.90;;;;;;5016698;28;20906;-69
2022/10/03 07:30:39;;;;;;;0.40;0.40;;;14.60;99.90;;;;;;5016407;28;20398;-70
2022/10/03 07:33:46;;;;;;;0.50;0.50;;;14.70;99.90;;;;;;5016512;28;20406;-67
2022/10/03 07:39:50;;;;;;;0.30;0.30;;;14.90;99.90;;;;;;5016632;28;20407;-68
2022/10/03 07:42:28;;;;;;;0.40;0.40;;;15.00;99.90;;;;;;5003274;28;20425;-71
2022/10/03 07:44:59;;;;;;;0.40;0.40;;;15.10;99.90;;;;;;5015763;28;20462;-71
2022/10/03 07:48:00;;;;;;;0.80;0.80;;;15.20;99.90;;;;;;5016147;28;20522;-69
2022/10/03 07:51:07;;;;;;;0.37;0.37;;;15.30;99.90;;;;;;5015663;28;20403;-70
2022/10/03 07:54:10;;;;;;;0.37;0.37;;;15.50;99.90;;;;;;5015608;28;20464;-70
2022/10/03 07:56:59;;;;;;;0.30;0.30;;;15.60;99.90;;;;;;5016619;28;20430;-71
2022/10/03 07:59:33;;;;;;;0.30;0.30;;;15.80;99.90;;;;;;5014933;28;20498;-69
2022/10/03 08:02:43;;;;;;;0.50;0.50;;;15.90;99.90;;;;;;5016247;28;20417;-70
2022/10/03 08:05:27;;;;;;;0.37;0.37;;;16.00;99.90;;;;;;5015241;28;20458;-70
2022/10/03 08:08:31;;;;;;;0.40;0.40;;;16.20;99.90;;;;;;5015540;28;20406;-67
2022/10/03 08:11:39;;;;;;;0.50;0.50;;;16.30;99.50;;;;;;5014046;28;20500;-68
2022/10/03 08:14:34;;;;;;;0.30;0.30;;;16.10;98.70;;;;;;5014862;28;20414;-70
2022/10/03 08:17:09;;;;;;;0.50;0.50;;;16.10;99.50;;;;;;5005381;28;20426;-69
2022/10/03 08:20:04;;;;;;;0.47;0.47;;;16.10;99.30;;;;;;5013814;28;20787;-71
2022/10/03 08:22:42;;;;;;;0.60;0.43;;;16.00;98.80;;;;;;5013576;28;20779;-70
2022/10/03 08:25:42;;;;;;;0.40;0.40;;;16.00;99.20;;;;;;5014922;28;20511;-70
2022/10/03 08:28:32;;;;;;;0.37;0.37;;;15.90;98.40;;;;;;5015348;28;20485;-69
2022/10/03 08:31:15;;;;;;;0.40;0.40;;;15.90;99.10;;;;;;5015323;28;20430;-68
2022/10/03 08:34:03;;;;;;;0.83;0.83;;;16.00;98.80;;;;;;5015526;28;20804;-68
2022/10/03 08:37:11;;;;;;;0.73;0.70;;;16.10;98.10;;;;;;5015079;28;20991;-68
2022/10/03 08:40:26;;;;;;;0.50;0.50;;;16.10;97.20;;;;;;5014951;28;20422;-70
2022/10/03 08:43:19;;;;;;;0.40;0.40;;;16.10;98.40;;;;;;5015143;28;20415;-69
2022/10/03 08:45:53;;;;;;;0.67;0.67;;;16.10;97.90;;;;;;5014778;28;20465;-71
2022/10/03 08:48:43;;;;;;;0.40;0.40;;;16.10;98.20;;;;;;5015162;28;20409;-69
2022/10/03 08:51:33;;;;;;;0.50;0.50;;;16.10;98.20;;;;;;5014853;28;20476;-69
2022/10/03 08:54:08;;;;;;;0.40;0.40;;;15.90;97.70;;;;;;5015318;28;20407;-69
2022/10/03 08:56:53;;;;;;;0.40;0.40;;;16.10;98.20;;;;;;5014822;28;20437;-70
2022/10/03 08:59:55;;;;;;;0.50;0.50;;;16.20;97.50;;;;;;5013409;28;20514;-69
2022/10/03 09:02:59;;;;;;;0.40;0.40;;;17.70;97.10;;;;;;5015026;28;20911;-71
2022/10/03 09:05:46;;;;;;;0.30;0.30;;;20.30;95.60;;;;;;5014744;28;20458;-70
2022/10/03 09:08:33;;;;;;;0.30;0.30;;;22.40;89.20;;;;;;5014649;28;20424;-69
2022/10/03 09:11:10;;;;;;;0.50;0.43;;;22.80;85.80;;;;;;5014607;28;20393;-71
2022/10/03 09:14:06;;;;;;;0.40;0.40;;;22.50;86.60;;;;;;5014779;28;20758;-69
2022/10/03 09:17:05;;;;;;;0.40;0.40;;;22.00;82.60;;;;;;5014532;28;20791;-70
2022/10/03 09:19:57;;;;;;;0.30;0.30;;;21.30;84.50;;;;;;5014550;28;20868;-69
2022/10/03 09:22:48;;;;;;;0.40;0.40;;;20.80;84.50;;;;;;5014659;28;20404;-70
2022/10/03 09:25:41;;;;;;;0.40;0.40;;;20.00;87.60;;;;;;5014396;28;20472;-71
2022/10/03 09:28:27;;;;;;;0.30;0.30;;;19.50;88.80;;;;;;4993307;28;20786;-70
2022/10/03 09:31:27;;;;;;;0.60;0.47;;;19.10;90.20;;;;;;5013174;28;20404;-69
2022/10/03 09:34:05;;;;;;;0.50;0.50;;;19.10;90.20;;;;;;5014438;28;20408;-68
2022/10/03 09:36:46;;;;;;;0.30;0.30;;;20.20;91.50;;;;;;5013443;28;20461;-71
2022/10/03 09:39:46;;;;;;;0.50;0.40;;;22.00;86.30;;;;;;5013940;28;20926;-71
2022/10/03 09:42:19;;;;;;;1.50;0.40;;;24.30;80.60;;;;;;5014356;28;20879;-70
2022/10/03 09:44:48;;;;;;;0.30;0.30;;;26.20;75.50;;;;;;5013850;28;20457;-72
2022/10/03 09:48:04;;;;;;;0.30;0.30;;;27.50;66.70;;;;;;5013883;28;20429;-69
2022/10/03 09:50:54;;;;;;;0.40;0.40;;;28.30;62.30;;;;;;4991063;28;20430;-72
2022/10/03 09:53:38;;;;;;;0.30;0.30;;;28.90;57.20;;;;;;5014214;28;20403;-71
2022/10/03 09:56:19;;;;;;;0.50;0.40;;;29.30;56.80;;;;;;5012523;28;20448;-69
2022/10/03 09:59:04;;;;;;;0.40;0.40;;;29.50;54.60;;;;;;5014009;28;20918;-71
2022/10/03 10:01:33;;;;;;;1.17;0.50;;;28.70;52.10;;;;;;5013086;28;20915;-71
2022/10/03 10:04:23;;;;;;;0.40;0.40;;;27.20;53.90;;;;;;5013683;28;20417;-71
2022/10/03 10:06:57;;;;;;;0.30;0.30;;;26.40;55.30;;;;;;5013594;28;20402;-68
2022/10/03 10:09:23;;;;;;;0.30;0.30;;;26.40;54.20;;;;;;5012743;28;20451;-72
2022/10/03 10:12:21;;;;;;;0.30;0.30;;;26.60;56.20;;;;;;5012931;28;20496;-69
2022/10/03 10:15:17;;;;;;;0.30;0.30;;;26.10;55.60;;;;;;4991039;28;20668;-69
2022/10/03 10:18:03;;;;;;;0.30;0.30;;;25.00;56.10;;;;;;5013811;28;20878;-70
2022/10/03 10:21:16;;;;;;;0.40;0.40;;;24.20;59.80;;;;;;5013507;28;20402;-68
2022/10/03 10:24:19;;;;;;;0.50;0.50;;;23.90;59.70;;;;;;5009858;28;20421;-68
2022/10/03 10:27:09;;;;;;;0.50;0.50;;;24.20;59.40;;;;;;5013378;28;20500;-67
2022/10/03 10:29:35;;;;;;;0.50;0.50;;;24.50;63.10;;;;;;5013456;28;20404;-69
2022/10/03 10:32:31;;;;;;;0.30;0.30;;;24.70;63.70;;;;;;5013615;28;20368;-71
2022/10/03 10:34:57;;;;;;;0.30;0.30;;;24.30;58.40;;;;;;5013678;28;20551;-71
2022/10/03 10:37:32;;;;;;;0.40;0.40;;;23.00;61.70;;;;;;5013455;28;20373;-70
2022/10/03 10:40:25;;;;;;;0.30;0.30;;;21.90;68.60;;;;;;5012048;28;20659;-69
2022/10/03 10:43:11;;;;;;;0.40;0.40;;;21.40;66.00;;;;;;5013754;28;20473;-68
2022/10/03 10:46:14;;;;;;;0.40;0.40;;;21.10;67.50;;;;;;5012783;28;20467;-71
2022/10/03 10:48:59;;;;;;;0.57;0.57;;;21.50;70.50;;;;;;5013361;28;20445;-71
2022/10/03 10:51:51;;;;;;;0.40;0.40;;;21.60;67.00;;;;;;5013613;28;20403;-68
2022/10/03 10:54:50;;;;;;;0.60;0.50;;;21.70;69.40;;;;;;5013385;28;20958;-70
2022/10/03 10:57:21;;;;;;;0.30;0.30;;;21.30;67.90;;;;;;5013333;28;20390;-68
2022/10/03 11:00:29;;;;;;;0.30;0.30;;;20.60;65.30;;;;;;5013193;28;20405;-68
2022/10/03 11:03:10;;;;;;;0.40;0.40;;;19.90;68.80;;;;;;5013038;28;20414;-70
2022/10/03 11:06:16;;;;;;;0.30;0.30;;;19.10;74.10;;;;;;5013260;28;20444;-69
2022/10/03 11:09:10;;;;;;;0.60;0.50;;;18.70;76.40;;;;;;4998281;28;20433;-70
2022/10/03 11:11:56;;;;;;;0.30;0.30;;;18.40;76.20;;;;;;5013465;28;20404;-70
2022/10/03 11:15:00;;;;;;;0.43;0.43;;;17.40;85.30;;;;;;5012801;28;20406;-69
2022/10/03 11:17:52;;;;;;;0.40;0.40;;;17.60;76.20;;;;;;5013405;28;20489;-70
2022/10/03 11:20:56;;;;;;;0.33;0.33;;;17.80;87.90;;;;;;5012740;28;20407;-69
2022/10/03 11:23:58;;;;;;;0.30;0.30;;;18.10;78.00;;;;;;5014176;28;20509;-68
2022/10/03 11:26:39;;;;;;;0.50;0.50;;;17.90;80.60;;;;;;5016468;28;20857;-68
2022/10/03 11:29:23;;;;;;;0.40;0.40;;;17.80;80.80;;;;;;5016321;28;20415;-71
2022/10/03 11:32:16;;;;;;;0.30;0.30;;;17.60;80.70;;;;;;5016971;28;20399;-69
2022/10/03 11:35:01;;;;;;;0.50;0.50;;;17.30;79.50;;;;;;5015337;28;20795;-70
2022/10/03 11:37:39;;;;;;;0.30;0.30;;;17.30;86.80;;;;;;5016335;28;20407;-68
2022/10/03 11:40:27;;;;;;;0.30;0.30;;;17.40;85.50;;;;;;5016165;28;20426;-70
2022/10/03 11:43:40;;;;;;;0.40;0.40;;;17.10;83.00;;;;;;5015183;28;20782;-70
2022/10/03 11:46:21;;;;;;;0.50;0.50;;;17.10;80.80;;;;;;5006462;28;20470;-70
2022/10/03 11:49:15;;;;;;;0.40;0.30;;;16.90;82.50;;;;;;5016103;28;20406;-68
2022/10/03 11:51:52;;;;;;;0.30;0.30;;;16.70;86.20;;;;;;5016577;28;20406;-69
2022/10/03 11:54:26;;;;;;;0.30;0.30;;;16.70;86.30;;;;;;5016000;28;20497;-67
2022/10/03 11:57:12;;;;;;;0.40;0.40;;;16.80;85.30;;;;;;5016080;28;20409;-71
2022/10/03 11:59:45;;;;;;;0.50;0.50;;;16.90;92.00;;;;;;5015845;28;20770;-71
2022/10/03 12:02:13;;;;;;;0.50;0.50;;;17.10;92.80;;;;;;5016150;28;20407;-70
2022/10/03 12:04:58;;;;;;;0.30;0.30;;;17.20;94.80;;;;;;5015918;28;20806;-69
2022/10/03 12:10:59;;;;;;;0.40;0.40;;;17.40;84.40;;;;;;5015440;28;20402;-70
2022/10/03 12:14:03;;;;;;;0.40;0.40;;;17.20;86.00;;;;;;5014397;28;20907;-70
2022/10/03 12:16:50;;;;;;;0.40;0.40;;;16.80;85.70;;;;;;5015721;28;20457;-68
2022/10/03 12:19:36;;;;;;;0.57;0.57;;;16.50;87.60;;;;;;5015234;28;20438;-71
2022/10/03 12:22:35;;;;;;;0.30;0.30;;;16.30;90.40;;;;;;5015295;28;20434;-68
2022/10/03 12:25:26;;;;;;;0.40;0.40;;;16.10;90.00;;;;;;5012985;28;21089;-68
2022/10/03 12:28:01;;;;;;;0.30;0.30;;;16.20;88.50;;;;;;5015199;28;20411;-71
2022/10/03 12:30:38;;;;;;;0.80;0.70;;;16.30;93.00;;;;;;5014127;28;20490;-69
2022/10/03 12:33:39;;;;;;;0.40;0.40;;;16.30;91.80;;;;;;5015926;28;20521;-69
2022/10/03 12:36:44;;;;;;;0.40;0.40;;;16.40;95.10;;;;;;4998785;28;20511;-70
2022/10/03 12:39:38;;;;;;;0.83;0.80;;;16.20;90.00;;;;;;5015501;28;20416;-70
2022/10/03 12:42:34;;;;;;;0.50;0.50;;;16.20;90.40;;;;;;5015891;28;20401;-70
2022/10/03 12:45:17;;;;;;;0.30;0.30;;;16.40;87.40;;;;;;5015260;28;20487;-71
2022/10/03 12:48:10;;;;;;;0.50;0.50;;;16.60;90.90;;;;;;5015511;28;20426;-70
2022/10/03 12:50:48;;;;;;;0.47;0.47;;;16.50;88.10;;;;;;5014962;28;20427;-70
2022/10/03 12:53:13;;;;;;;0.50;0.50;;;16.70;86.50;;;;;;5015152;28;20398;-70
2022/10/03 12:56:03;;;;;;;0.40;0.40;;;16.70;84.00;;;;;;5014826;28;20438;-71
2022/10/03 12:58:41;;;;;;;0.30;0.30;;;16.90;83.30;;;;;;5014001;28;20187;-69
2022/10/03 13:01:15;;;;;;;0.67;0.67;;;16.80;83.30;;;;;;5014575;28;20422;-72
2022/10/03 13:04:13;;;;;;;0.40;0.40;;;16.70;91.00;;;;;;5015348;28;20421;-71
2022/10/03 13:06:53;;;;;;;0.40;0.40;;;16.50;93.30;;;;;;5012301;28;20473;-69
2022/10/03 13:09:51;;;;;;;0.43;0.43;;;16.30;91.30;;;;;;5015030;28;20445;-69
2022/10/03 13:12:23;;;;;;;0.30;0.30;;;16.20;89.40;;;;;;5013631;28;20411;-70
2022/10/03 13:15:40;;;;;;;0.50;0.50;;;16.30;88.80;;;;;;5014506;28;20955;-72
2022/10/03 13:18:55;;;;;;;0.40;0.40;;;16.40;87.90;;;;;;4943362;28;20426;-72
2022/10/03 13:21:37;;;;;;;0.50;0.43;;;16.30;86.40;;;;;;5002865;28;20428;-69
2022/10/03 13:24:19;;;;;;;1.17;1.07;;;15.90;86.00;;;;;;5012819;28;20488;-69
2022/10/03 13:27:32;;;;;;;0.40;0.40;;;15.80;88.40;;;;;;5013486;28;20497;-70
2022/10/03 13:30:13;;;;;;;0.67;0.67;;;15.70;90.80;;;;;;5007794;28;20937;-68
2022/10/03 13:32:46;;;;;;;0.50;0.50;;;15.40;90.70;;;;;;5014533;28;20408;-72
2022/10/03 13:38:22;;;;;;;1.17;0.93;;;15.20;86.40;;;;;;5014348;28;20394;-71
2022/10/03 13:40:56;;;;;;;0.63;0.60;;;15.20;89.00;;;;;;5014093;28;20896;-69
2022/10/03 13:43:36;;;;;;;0.50;0.50;;;15.20;90.60;;;;;;5014195;28;20887;-72
2022/10/03 13:46:23;;;;;;;0.43;0.43;;;15.20;89.50;;;;;;5013662;28;20476;-71
2022/10/03 13:49:09;;;;;;;0.50;0.50;;;15.30;93.50;;;;;;5014085;28;20416;-73
2022/10/03 13:52:03;;;;;;;1.10;1.10;;;15.30;93.50;;;;;;5014506;28;20824;-70
2022/10/03 13:54:48;;;;;;;0.30;0.30;;;15.10;99.90;;;;;;5013971;28;20444;-72
2022/10/03 13:57:22;;;;;;;0.30;0.30;;;15.20;95.00;;;;;;5013833;28;20410;-69
2022/10/03 13:59:50;;;;;;;0.40;0.40;;;15.00;97.50;;;;;;5013796;28;20548;-72
2022/10/03 14:02:48;;;;;;;0.50;0.50;;;14.60;97.20;;;;;;5013917;28;20412;-72
2022/10/03 14:05:28;;;;;;;0.80;0.60;;;14.40;98.70;;;;;;4999761;28;20527;-70
2022/10/03 14:08:14;;;;;;;0.70;0.70;;;14.30;97.10;;;;;;5013797;28;20494;-70
2022/10/03 14:11:06;;;;;;;0.70;0.70;;;14.40;99.50;;;;;;5013755;28;20412;-72
2022/10/03 14:14:04;;;;;;;0.50;0.50;;;14.30;99.30;;;;;;5014065;28;20408;-68
2022/10/03 14:16:37;;;;;;;0.70;0.60;;;14.30;99.90;;;;;;5013770;28;20929;-70
2022/10/03 14:19:43;;;;;;;0.43;0.43;;;14.20;99.90;;;;;;5013623;28;20419;-71
2022/10/03 14:22:16;;;;;;;0.83;0.83;;;14.20;99.90;;;;;;5011692;28;20501;-71
2022/10/03 14:25:02;;;;;;;0.40;0.40;;;13.90;99.90;;;;;;5013453;28;20876;-70
2022/10/03 14:27:45;;;;;;;0.40;0.40;;;13.90;99.90;;;;;;5013549;28;20438;-71
2022/10/03 14:30:15;;;;;;;0.40;0.40;;;13.70;99.90;;;;;;5013544;28;20549;-72
2022/10/03 14:33:02;;;;;;;0.40;0.40;;;13.70;99.90;;;;;;5013720;28;20398;-69
2022/10/03 14:35:37;;;;;;;0.87;0.87;;;13.60;99.90;;;;;;5013844;28;20426;-71
2022/10/03 14:41:22;;;;;;;0.30;0.30;;;13.40;99.90;;;;;;5013759;28;20394;-71
2022/10/03 14:44:04;;;;;;;0.50;0.50;;;13.30;99.90;;;;;;5013902;28;20402;-71
2022/10/03 14:46:39;;;;;;;0.50;0.50;;;13.30;99.90;;;;;;5013170;28;20474;-72